createdAt,value
2023-02-09T00:02:46.732Z,102207.63
2023-02-09T00:06:50.479Z,102198.09
2023-02-09T00:10:53.452Z,102195.22
2023-02-09T00:14:58.276Z,102193.84
2023-02-09T00:19:01.265Z,102188.41
2023-02-09T00:23:04.296Z,102182.84
2023-02-09T00:27:07.266Z,102182.53
2023-02-09T00:31:13.690Z,102183.59
2023-02-09T00:35:17.267Z,102182.41
2023-02-09T00:39:20.305Z,102177.25
2023-02-09T00:43:23.305Z,102166.06
2023-02-09T00:47:30.301Z,102167.56
2023-02-09T00:51:33.452Z,102164.69
2023-02-09T00:55:38.481Z,102159.41
2023-02-09T00:59:42.830Z,102162.72
2023-02-09T01:03:47.358Z,102145.31
2023-02-09T01:07:50.948Z,102145.00
2023-02-09T01:11:54.030Z,102140.03
2023-02-09T01:15:57.064Z,102125.06
2023-02-09T01:20:01.911Z,102115.19
2023-02-09T01:24:05.338Z,102116.72
2023-02-09T01:28:08.451Z,102108.84
2023-02-09T01:32:11.648Z,102105.53
2023-02-09T01:36:16.288Z,102104.91
2023-02-09T01:40:19.318Z,102100.06
2023-02-09T01:44:59.561Z,102103.69
2023-02-09T01:49:09.418Z,102093.06
2023-02-09T01:53:14.299Z,102083.56
2023-02-09T01:57:23.737Z,102071.28
2023-02-09T02:01:27.805Z,102054.31
2023-02-09T02:05:32.873Z,102051.63
2023-02-09T02:09:37.480Z,102044.94
2023-02-09T02:13:40.635Z,102040.09
2023-02-09T02:17:59.304Z,102037.78
2023-02-09T02:22:43.428Z,102040.50
2023-02-09T02:26:56.374Z,102047.50
2023-02-09T02:31:29.715Z,102041.41
2023-02-09T02:35:38.873Z,102053.41
2023-02-09T02:39:51.078Z,102044.00
2023-02-09T02:44:02.025Z,102045.25
2023-02-09T02:48:14.391Z,102037.66
2023-02-09T02:52:18.992Z,102030.84
2023-02-09T02:56:26.022Z,102033.13
2023-02-09T03:00:33.759Z,102037.38
2023-02-09T03:04:40.198Z,102035.56
2023-02-09T03:08:52.835Z,102033.72
2023-02-09T03:13:09.293Z,102044.03
2023-02-09T03:17:26.900Z,102043.91
2023-02-09T03:21:42.776Z,102051.00
2023-02-09T03:25:52.765Z,102052.53
2023-02-09T03:29:59.182Z,102038.88
2023-02-09T03:34:02.613Z,102044.03
2023-02-09T03:38:07.125Z,102045.09
2023-02-09T03:42:12.184Z,102045.84
2023-02-09T03:46:15.199Z,102044.03
2023-02-09T03:50:18.745Z,102045.84
2023-02-09T03:54:22.677Z,102046.59
2023-02-09T03:58:27.407Z,102042.22
2023-02-09T04:02:30.814Z,102043.75
2023-02-09T04:06:34.958Z,102045.56
2023-02-09T04:10:37.964Z,102043.91
2023-02-09T04:14:42.459Z,102041.94
2023-02-09T04:18:45.998Z,102043.47
2023-02-09T04:22:49.110Z,102048.59
2023-02-09T04:26:52.065Z,102045.59
2023-02-09T04:30:57.520Z,102054.81
2023-02-09T04:35:00.542Z,102048.63
2023-02-09T04:39:03.672Z,102047.72
2023-02-09T04:43:07.304Z,102051.66
2023-02-09T04:47:11.827Z,102056.06
2023-02-09T04:51:14.984Z,102053.50
2023-02-09T04:55:18.188Z,102042.00
2023-02-09T04:59:35.984Z,102041.84
2023-02-09T05:03:40.438Z,102048.69
2023-02-09T05:07:43.433Z,102045.66
2023-02-09T05:11:46.494Z,102024.75
2023-02-09T05:15:49.679Z,102032.06
2023-02-09T05:19:54.325Z,102033.44
2023-02-09T05:23:57.278Z,102039.31
2023-02-09T05:28:00.434Z,102037.38
2023-02-09T05:32:03.655Z,102038.69
2023-02-09T05:36:09.997Z,102041.44
2023-02-09T05:40:13.960Z,102042.06
2023-02-09T05:44:17.428Z,102041.28
2023-02-09T05:48:20.402Z,102041.28
2023-02-09T05:52:25.026Z,102028.28
2023-02-09T05:56:28.037Z,102034.34
2023-02-09T06:00:31.860Z,102041.59
2023-02-09T06:04:36.107Z,102037.38
2023-02-09T06:08:40.509Z,102046.28
2023-02-09T06:12:43.510Z,102037.03
2023-02-09T06:16:46.846Z,102048.69
2023-02-09T06:20:49.813Z,102038.41
2023-02-09T06:24:54.367Z,102042.19
2023-02-09T06:28:57.341Z,102050.22
2023-02-09T06:33:00.398Z,102064.88
2023-02-09T06:37:03.434Z,102063.66
2023-02-09T06:41:07.980Z,102059.56
2023-02-09T06:45:11.617Z,102056.56
2023-02-09T06:49:14.802Z,102061.69
2023-02-09T06:53:18.724Z,102063.50
2023-02-09T06:57:23.229Z,102064.69
2023-02-09T07:01:26.272Z,102064.09
2023-02-09T07:05:29.456Z,102070.59
2023-02-09T07:09:32.438Z,102068.34
2023-02-09T07:13:37.284Z,102075.56
2023-02-09T07:17:40.764Z,102076.47
2023-02-09T07:21:43.873Z,102069.19
2023-02-09T07:25:46.844Z,102071.28
2023-02-09T07:29:51.360Z,102068.53
2023-02-09T07:33:55.750Z,102071.13
2023-02-09T07:37:58.881Z,102072.31
2023-02-09T07:42:02.119Z,102074.44
2023-02-09T07:46:25.644Z,102077.00
2023-02-09T07:50:28.708Z,102071.34
2023-02-09T07:54:31.832Z,102067.53
2023-02-09T07:58:34.880Z,102073.28
2023-02-09T08:02:39.918Z,102080.53
2023-02-09T08:06:46.147Z,102079.31
2023-02-09T08:10:49.481Z,102073.53
2023-02-09T08:14:52.469Z,102065.28
2023-02-09T08:18:59.994Z,102059.63
2023-02-09T08:23:08.331Z,102052.78
2023-02-09T08:27:11.960Z,102061.84
2023-02-09T08:31:17.401Z,102058.41
2023-02-09T08:35:22.000Z,102052.00
2023-02-09T08:39:25.040Z,102062.56
2023-02-09T08:43:28.092Z,102059.25
2023-02-09T08:47:31.228Z,102060.41
2023-02-09T08:51:35.704Z,102054.38
2023-02-09T08:55:39.427Z,102056.41
2023-02-09T08:59:42.802Z,102046.53
2023-02-09T09:03:45.779Z,102044.69
2023-02-09T09:07:50.227Z,102039.31
2023-02-09T09:11:53.318Z,102038.56
2023-02-09T09:15:56.553Z,102022.69
2023-02-09T09:20:00.657Z,102036.94
2023-02-09T09:24:05.656Z,102030.34
2023-02-09T09:28:09.837Z,102027.63
2023-02-09T09:32:14.845Z,102027.75
2023-02-09T09:36:17.919Z,102035.78
2023-02-09T09:40:25.550Z,102029.19
2023-02-09T09:44:33.502Z,102025.91
2023-02-09T09:48:43.842Z,102028.47
2023-02-09T09:52:50.730Z,102021.41
2023-02-09T09:56:55.840Z,102024.22
2023-02-09T10:00:59.201Z,102013.84
2023-02-09T10:05:11.551Z,102019.22
2023-02-09T10:09:27.142Z,102013.88
2023-02-09T10:13:36.442Z,102001.88
2023-02-09T10:17:39.377Z,101996.38
2023-02-09T10:21:42.440Z,101994.84
2023-02-09T10:26:04.524Z,101984.75
2023-02-09T10:30:20.911Z,101986.03
2023-02-09T10:34:31.904Z,101980.13
2023-02-09T10:38:35.314Z,101975.84
2023-02-09T10:42:41.994Z,101972.34
2023-02-09T10:46:47.827Z,101961.84
2023-02-09T10:50:53.209Z,101958.03
2023-02-09T10:55:00.134Z,101949.88
2023-02-09T10:59:15.158Z,101940.84
2023-02-09T11:03:21.637Z,101937.00
2023-02-09T11:07:31.174Z,101916.53
2023-02-09T11:11:37.785Z,101922.31
2023-02-09T11:15:46.332Z,101905.56
2023-02-09T11:20:20.903Z,101906.22
2023-02-09T11:24:38.965Z,101895.22
2023-02-09T11:28:51.192Z,101908.03
2023-02-09T11:32:59.055Z,101899.06
2023-02-09T11:37:16.467Z,101894.41
2023-02-09T11:41:47.228Z,101880.94
2023-02-09T11:45:51.966Z,101884.53
2023-02-09T11:49:59.075Z,101876.97
2023-02-09T11:54:08.612Z,101865.41
2023-02-09T11:58:26.148Z,101860.59
2023-02-09T12:02:46.305Z,101853.34
2023-02-09T12:06:51.995Z,101854.84
2023-02-09T12:11:09.103Z,101856.66
2023-02-09T12:15:16.446Z,101845.16
2023-02-09T12:19:29.358Z,101836.84
2023-02-09T12:23:33.731Z,101819.63
2023-02-09T12:27:40.974Z,101815.84
2023-02-09T12:32:14.275Z,101808.84
2023-02-09T12:36:30.535Z,101795.44
2023-02-09T12:40:37.528Z,101788.81
2023-02-09T12:44:55.960Z,101790.34
2023-02-09T12:49:21.025Z,101782.84
2023-02-09T12:53:36.073Z,101782.94
2023-02-09T12:57:54.460Z,101777.22
2023-02-09T13:02:27.178Z,101773.41
2023-02-09T13:06:40.434Z,101759.81
2023-02-09T13:10:47.332Z,101756.59
2023-02-09T13:14:52.072Z,101761.50
2023-02-09T13:19:03.752Z,101766.00
2023-02-09T13:23:20.631Z,101754.16
2023-02-09T13:27:25.429Z,101751.78
2023-02-09T13:31:35.335Z,101755.47
2023-02-09T13:35:58.654Z,101758.16
2023-02-09T13:40:03.395Z,101745.97
2023-02-09T13:44:20.696Z,101740.16
2023-02-09T13:48:25.224Z,101738.53
2023-02-09T13:52:36.428Z,101739.94
2023-02-09T13:56:42.844Z,101732.03
2023-02-09T14:00:49.650Z,101728.53
2023-02-09T14:04:57.318Z,101729.25
2023-02-09T14:09:03.612Z,101731.56
2023-02-09T14:13:18.359Z,101726.88
2023-02-09T14:17:26.340Z,101740.69
2023-02-09T14:21:34.258Z,101742.28
2023-02-09T14:25:40.376Z,101734.38
2023-02-09T14:29:47.851Z,101740.28
2023-02-09T14:33:53.275Z,101726.97
2023-02-09T14:37:58.101Z,101726.78
2023-02-09T14:42:18.416Z,101716.28
2023-02-09T14:46:21.736Z,101712.56
2023-02-09T14:50:25.432Z,101700.97
2023-02-09T14:54:30.585Z,101703.56
2023-02-09T14:58:35.172Z,101708.78
2023-02-09T15:02:38.349Z,101705.97
2023-02-09T15:06:45.055Z,101706.38
2023-02-09T15:10:53.382Z,101707.78
2023-02-09T15:15:00.547Z,101718.69
2023-02-09T15:19:05.409Z,101714.16
2023-02-09T15:23:08.882Z,101706.97
2023-02-09T15:27:16.628Z,101705.00
2023-02-09T15:31:21.989Z,101705.47
2023-02-09T15:35:27.346Z,101716.38
2023-02-09T15:39:31.579Z,101706.47
2023-02-09T15:43:51.866Z,101714.16
2023-02-09T15:47:58.892Z,101705.16
2023-02-09T15:52:02.048Z,101700.34
2023-02-09T15:56:06.617Z,101698.25
2023-02-09T16:00:17.325Z,101702.13
2023-02-09T16:04:21.970Z,101710.44
2023-02-09T16:08:27.068Z,101713.50
2023-02-09T16:12:30.530Z,101724.38
2023-02-09T16:16:33.811Z,101728.47
2023-02-09T16:20:39.240Z,101736.84
2023-02-09T16:24:45.934Z,101727.03
2023-02-09T16:28:49.067Z,101722.44
2023-02-09T16:32:53.297Z,101720.09
2023-02-09T16:36:57.750Z,101719.78
2023-02-09T16:41:00.745Z,101712.56
2023-02-09T16:45:03.928Z,101708.75
2023-02-09T16:49:06.994Z,101712.84
2023-02-09T16:53:18.371Z,101705.59
2023-02-09T16:57:23.460Z,101716.47
2023-02-09T17:01:26.548Z,101707.56
2023-02-09T17:05:32.038Z,101703.84
2023-02-09T17:09:36.544Z,101700.84
2023-02-09T17:13:39.577Z,101711.00
2023-02-09T17:17:48.121Z,101715.97
2023-02-09T17:21:51.107Z,101719.94
2023-02-09T17:25:56.235Z,101728.50
2023-02-09T17:29:59.200Z,101721.53
2023-02-09T17:34:04.206Z,101711.03
2023-02-09T17:38:07.781Z,101706.31
2023-02-09T17:42:22.840Z,101706.88
2023-02-09T17:46:25.890Z,101715.47
2023-02-09T17:50:29.516Z,101720.41
2023-02-09T17:54:33.964Z,101716.38
2023-02-09T17:58:38.739Z,101723.03
2023-02-09T18:02:41.896Z,101717.59
2023-02-09T18:06:45.075Z,101714.94
2023-02-09T18:10:48.228Z,101710.28
2023-02-09T18:14:53.135Z,101709.41
2023-02-09T18:18:56.142Z,101708.41
2023-02-09T18:22:59.425Z,101708.28
2023-02-09T18:27:02.904Z,101711.41
2023-02-09T18:31:08.345Z,101704.22
2023-02-09T18:35:18.102Z,101713.69
2023-02-09T18:39:21.237Z,101712.22
2023-02-09T18:43:24.213Z,101710.66
2023-02-09T18:47:28.709Z,101729.56
2023-02-09T18:51:32.508Z,101718.19
2023-02-09T18:55:36.143Z,101718.19
2023-02-09T18:59:40.332Z,101720.91
2023-02-09T19:03:44.767Z,101726.19
2023-02-09T19:07:47.933Z,101728.00
2023-02-09T19:11:50.991Z,101741.63
2023-02-09T19:15:54.066Z,101735.56
2023-02-09T19:19:59.744Z,101733.75
2023-02-09T19:24:02.885Z,101730.84
2023-02-09T19:28:06.266Z,101738.50
2023-02-09T19:32:09.406Z,101746.81
2023-02-09T19:36:13.900Z,101745.03
2023-02-09T19:40:21.517Z,101736.25
2023-02-09T19:44:24.628Z,101732.41
2023-02-09T19:48:27.612Z,101730.59
2023-02-09T19:52:34.850Z,101735.53
2023-02-09T19:56:38.465Z,101723.38
2023-02-09T20:00:41.780Z,101721.47
2023-02-09T20:04:45.959Z,101713.56
2023-02-09T20:08:50.627Z,101704.00
2023-02-09T20:12:53.636Z,101701.97
2023-02-09T20:16:56.849Z,101713.91
2023-02-09T20:20:59.802Z,101714.13
2023-02-09T20:25:04.328Z,101717.38
2023-02-09T20:29:07.407Z,101717.97
2023-02-09T20:33:11.024Z,101712.41
2023-02-09T20:37:14.049Z,101710.63
2023-02-09T20:41:19.410Z,101702.63
2023-02-09T20:45:39.773Z,101707.81
2023-02-09T20:49:43.347Z,101706.00
2023-02-09T20:53:49.788Z,101699.81
2023-02-09T20:57:57.877Z,101695.44
2023-02-09T21:02:14.273Z,101684.03
2023-02-09T21:06:22.443Z,101678.75
2023-02-09T21:10:31.593Z,101676.03
2023-02-09T21:14:43.906Z,101688.88
2023-02-09T21:18:46.898Z,101686.41
2023-02-09T21:22:50.527Z,101695.97
2023-02-09T21:26:53.523Z,101683.81
2023-02-09T21:30:58.100Z,101680.19
2023-02-09T21:35:01.041Z,101681.66
2023-02-09T21:39:04.288Z,101693.59
2023-02-09T21:43:07.234Z,101703.50
2023-02-09T21:47:11.784Z,101714.09
2023-02-09T21:51:14.748Z,101695.06
2023-02-09T21:55:18.154Z,101704.88
2023-02-09T21:59:21.300Z,101697.88
2023-02-09T22:03:26.119Z,101699.44
2023-02-09T22:07:29.629Z,101705.97
2023-02-09T22:11:32.768Z,101700.56
2023-02-09T22:15:35.746Z,101709.66
2023-02-09T22:19:40.274Z,101705.03
2023-02-09T22:23:43.448Z,101707.38
2023-02-09T22:27:46.543Z,101706.91
2023-02-09T22:31:49.528Z,101709.03
2023-02-09T22:35:54.039Z,101712.28
2023-02-09T22:39:57.216Z,101704.94
2023-02-09T22:44:02.207Z,101707.09
2023-02-09T22:48:05.628Z,101718.97
2023-02-09T22:52:10.517Z,101710.06
2023-02-09T22:56:13.901Z,101705.56
2023-02-09T23:00:17.908Z,101696.56
2023-02-09T23:04:21.242Z,101698.13
2023-02-09T23:08:25.737Z,101690.13
2023-02-09T23:12:28.710Z,101675.38
2023-02-09T23:16:32.477Z,101685.50
2023-02-09T23:20:35.441Z,101701.66
2023-02-09T23:24:39.972Z,101691.75
2023-02-09T23:28:43.272Z,101691.63
2023-02-09T23:32:46.549Z,101696.69
2023-02-09T23:36:49.778Z,101699.94
2023-02-09T23:40:54.427Z,101710.81
2023-02-09T23:44:57.514Z,101722.59
2023-02-09T23:49:00.829Z,101723.00
2023-02-09T23:53:03.964Z,101713.31
2023-02-09T23:57:08.712Z,101718.25
